Decoded Metar for LYTV (TIVAT in SERBIA) (IATA:TIV) | Meteo·Mobile Aviation Weather
aviador You're here:

LYTV Decoded Metar

TIVAT in SERBIA
Report Time2018-11-16 17:30:00
UTC Time2018-11-16 17:43:34
Flight Rules vfr VFR
Wind060° at 08 Gusting to 18 kt
W.Decomp.*RWY 14: 1.1 kt HW 7.9 kt LCW
W.Rank060° ranks 31
Current wind is above 060° avg. (4.7)
Visibility9999 m
Phenomena:N/A
Clouds:N/A
Expected CloudBase > 7,200 ft AGL from Temp-Dew spread
CeilingNone
Temp14°C (ISA -1)
Dew Point-4°C (29% RH)
AAT8.6°C
QNH1020 hPa
Density Alt-269 ft
Elevation16 ft
Report Wrong Elevation
Raw Report
LYTV 161730Z 06008G18KT CAVOK 14/M04 Q1020=

Extra information for LYTV:More info

Metar Taf Metar & Taf Last 4 Metars F.Rules Stats Wind Profile Meteogram Temp Stats Airport Information Weather charts Add Link Nearby VenuesMetar ALERT Operation Metar Decoded Social comments